Time;durP1;ratioP1;P1;durP2;ratioP2;P2;SDS_P1;SDS_P2;PMS_P1;PMS_P2;Temp;Humidity;BMP_temperature;BMP_pressure;BME280_temperature;BME280_humidity;BME280_pressure;Samples;Min_cycle;Max_cycle;Signal;HPM_P1;HPM_P2
2023/01/09 00:01:52;;;;;;;;;2.67;1.00;;;;;8.57;69.78;99587.06;4975699;28;47319;-44
2023/01/09 00:04:18;;;;;;;;;0.00;0.00;;;;;8.49;70.55;99576.44;4975639;28;45432;-44
2023/01/09 00:06:45;;;;;;;;;1.00;1.00;;;;;8.52;70.95;99588.56;4976078;28;45444;-45
2023/01/09 00:09:11;;;;;;;;;0.33;0.00;;;;;8.55;69.91;99591.69;4975862;28;45360;-48
2023/01/09 00:11:37;;;;;;;;;4.00;0.00;;;;;8.55;70.51;99596.16;4976128;28;45258;-48
2023/01/09 00:14:03;;;;;;;;;2.00;0.33;;;;;8.50;70.90;99601.94;4975811;28;45190;-43
2023/01/09 00:16:29;;;;;;;;;1.33;0.00;;;;;8.43;70.12;99593.84;4975905;28;45201;-56
2023/01/09 00:18:55;;;;;;;;;0.00;0.00;;;;;8.49;70.78;99603.78;4975871;28;45248;-48
2023/01/09 00:21:20;;;;;;;;;0.00;0.00;;;;;8.49;70.91;99616.19;4975397;28;45476;-56
2023/01/09 00:23:46;;;;;;;;;0.00;0.00;;;;;8.48;70.93;99609.25;4975608;28;45408;-57
2023/01/09 00:26:17;;;;;;;;;0.00;0.00;;;;;8.44;70.40;99613.22;4975862;28;45646;-57
2023/01/09 00:28:43;;;;;;;;;1.00;1.00;;;;;8.44;70.46;99611.38;4975695;28;45427;-53
2023/01/09 00:31:09;;;;;;;;;2.00;1.00;;;;;8.42;71.43;99612.53;4975486;28;46219;-55
2023/01/09 00:33:54;;;;;;;;;3.33;0.33;;;;;8.42;70.90;99615.19;4975173;28;45427;-57
2023/01/09 00:36:19;;;;;;;;;5.00;0.67;;;;;8.43;70.30;99617.69;4975528;28;45265;-43
2023/01/09 00:38:45;;;;;;;;;2.00;0.00;;;;;8.44;70.81;99611.38;4975787;28;45209;-47
2023/01/09 00:41:16;;;;;;;;;1.33;1.00;;;;;8.42;70.90;99597.44;4974231;28;46162;-57
2023/01/09 00:43:48;;;;;;;;;1.00;1.00;;;;;8.37;70.62;99588.34;4976721;28;45412;-55
2023/01/09 00:46:16;;;;;;;;;0.00;0.00;;;;;8.48;70.57;99611.91;4975599;28;45449;-45
2023/01/09 00:48:46;;;;;;;;;1.67;1.00;;;;;8.48;71.12;99596.00;4975461;28;45414;-58
2023/01/09 00:51:12;;;;;;;;;3.00;0.00;;;;;8.48;71.51;99612.72;4975175;28;45457;-59
2023/01/09 00:53:39;;;;;;;;;3.67;0.33;;;;;8.50;70.33;99609.91;4975441;28;45466;-58
2023/01/09 00:56:10;;;;;;;;;0.00;0.00;;;;;8.45;70.62;99612.22;4975518;28;45308;-45
2023/01/09 00:58:36;;;;;;;;;0.00;0.00;;;;;8.47;70.59;99626.97;4974314;28;45592;-55
2023/01/09 01:01:01;;;;;;;;;1.00;1.00;;;;;8.50;71.50;99629.28;4975030;28;46090;-55
2023/01/09 01:03:27;;;;;;;;;0.67;0.67;;;;;8.50;70.80;99636.41;4974899;28;45432;-57
2023/01/09 01:08:36;;;;;;;;;2.33;2.00;;;;;8.48;69.96;99644.53;4975536;28;45381;-56
2023/01/09 01:11:11;;;;;;;;;0.00;0.00;;;;;8.47;71.11;99634.94;4975011;28;46211;-45
2023/01/09 01:13:37;;;;;;;;;2.00;0.00;;;;;8.44;70.69;99643.19;4974840;28;45365;-56
2023/01/09 01:16:04;;;;;;;;;2.00;0.00;;;;;8.45;70.86;99644.00;4975041;28;45429;-54
2023/01/09 01:18:29;;;;;;;;;0.00;0.00;;;;;8.47;71.25;99624.31;4974986;28;45311;-46
2023/01/09 01:20:54;;;;;;;;;8.00;0.00;;;;;8.47;70.54;99650.00;4973653;28;45367;-56
2023/01/09 01:23:20;;;;;;;;;5.33;1.00;;;;;8.48;70.56;99649.84;4974706;28;45432;-48
2023/01/09 01:25:45;;;;;;;;;0.33;0.33;;;;;8.47;70.43;99642.88;4975013;28;45376;-59
2023/01/09 01:28:11;;;;;;;;;3.33;0.33;;;;;8.51;71.05;99646.00;4975129;28;45416;-54
2023/01/09 01:30:41;;;;;;;;;1.00;0.00;;;;;8.49;70.41;99650.66;4974846;28;47721;-50
2023/01/09 01:33:07;;;;;;;;;0.33;0.00;;;;;8.49;70.40;99655.97;4974860;28;45364;-48
2023/01/09 01:35:33;;;;;;;;;1.00;1.00;;;;;8.47;70.26;99656.13;4974415;28;45411;-54
2023/01/09 01:37:59;;;;;;;;;1.33;1.00;;;;;8.39;70.49;99637.53;4974800;28;45342;-50
2023/01/09 01:40:24;;;;;;;;;2.67;1.00;;;;;8.54;70.67;99666.06;4974730;28;45523;-57
2023/01/09 01:42:52;;;;;;;;;2.33;0.67;;;;;8.54;70.78;99669.56;4974438;28;45236;-45
2023/01/09 01:45:27;;;;;;;;;2.33;1.00;;;;;8.52;70.34;99658.28;4974688;28;45335;-58
2023/01/09 01:47:55;;;;;;;;;1.67;0.00;;;;;8.59;70.34;99661.13;4974603;28;45358;-57
2023/01/09 01:50:27;;;;;;;;;1.00;1.00;;;;;8.53;70.01;99652.00;4973986;28;45408;-57
2023/01/09 01:53:03;;;;;;;;;6.33;1.00;;;;;8.59;70.73;99661.13;4974173;28;45229;-55
2023/01/09 01:55:28;;;;;;;;;2.67;1.33;;;;;8.59;70.71;99667.25;4974422;28;45309;-47
2023/01/09 01:57:59;;;;;;;;;2.00;0.33;;;;;8.61;70.30;99675.88;4974481;28;45291;-58
2023/01/09 02:00:31;;;;;;;;;3.33;1.00;;;;;8.60;70.26;99665.47;4974214;28;46290;-45
2023/01/09 02:02:58;;;;;;;;;1.00;1.00;;;;;8.60;70.50;99666.28;4973901;28;45304;-54
2023/01/09 02:05:23;;;;;;;;;2.00;2.00;;;;;8.61;70.85;99667.09;4974241;28;45415;-46
2023/01/09 02:07:49;;;;;;;;;4.00;1.00;;;;;8.63;70.57;99673.88;4973020;28;45679;-58
2023/01/09 02:10:14;;;;;;;;;0.00;0.00;;;;;8.62;71.04;99658.97;4974191;28;46170;-58
2023/01/09 02:12:39;;;;;;;;;1.00;1.00;;;;;8.58;70.95;99665.59;4974162;28;45294;-58
2023/01/09 02:15:07;;;;;;;;;8.33;2.00;;;;;8.56;70.44;99666.75;4974165;28;45425;-50
2023/01/09 02:18:00;;;;;;;;;1.00;1.00;;;;;8.54;71.48;99680.16;4973020;28;45243;-56
2023/01/09 02:20:39;;;;;;;;;2.00;1.00;;;;;8.52;71.41;99676.84;4973835;28;46260;-53
2023/01/09 02:23:26;;;;;;;;;5.00;0.67;;;;;8.50;70.69;99687.59;4973941;28;45583;-48
2023/01/09 02:26:18;;;;;;;;;2.00;0.00;;;;;8.48;70.97;99670.22;4974118;28;45382;-58
2023/01/09 02:28:49;;;;;;;;;1.33;0.00;;;;;8.47;71.66;99674.69;4974076;28;45232;-59
2023/01/09 02:31:36;;;;;;;;;6.33;0.00;;;;;8.45;71.08;99675.81;4973604;28;45338;-57
2023/01/09 02:34:17;;;;;;;;;1.00;1.00;;;;;8.47;71.00;99681.81;4978099;28;45355;-58
2023/01/09 02:36:51;;;;;;;;;2.00;1.00;;;;;8.46;71.46;99686.25;4976656;28;45431;-51
2023/01/09 02:39:32;;;;;;;;;0.00;0.00;;;;;8.49;71.59;99695.72;4977151;28;45289;-45
2023/01/09 02:42:09;;;;;;;;;7.00;0.33;;;;;8.49;70.90;99688.59;4976707;28;45404;-52
2023/01/09 02:44:35;;;;;;;;;0.67;0.00;;;;;8.46;71.12;99688.91;4976683;28;45373;-52
2023/01/09 02:47:05;;;;;;;;;0.00;0.00;;;;;8.47;71.86;99703.84;4976670;28;45469;-54
2023/01/09 02:49:36;;;;;;;;;1.00;1.00;;;;;8.46;71.67;99702.16;4976835;28;45415;-52
2023/01/09 02:52:23;;;;;;;;;4.33;1.00;;;;;8.48;71.85;99700.19;4976568;28;46239;-54
2023/01/09 02:55:09;;;;;;;;;7.00;1.33;;;;;8.55;71.35;99704.84;4976482;28;45413;-47
2023/01/09 02:57:56;;;;;;;;;2.00;0.33;;;;;8.57;70.90;99693.09;4976668;28;45386;-58
2023/01/09 03:00:49;;;;;;;;;1.33;1.33;;;;;8.57;71.64;99690.44;4976756;28;45287;-55
2023/01/09 03:03:31;;;;;;;;;1.00;1.00;;;;;8.54;71.07;99680.16;4976287;28;45381;-56
2023/01/09 03:06:17;;;;;;;;;3.67;1.67;;;;;8.50;71.49;99684.13;4975984;28;45415;-48
2023/01/09 03:08:47;;;;;;;;;1.00;1.00;;;;;8.49;71.14;99685.13;4976508;28;45319;-57
2023/01/09 03:11:12;;;;;;;;;6.00;1.33;;;;;8.46;71.90;99694.19;4976602;28;45385;-58
2023/01/09 03:13:45;;;;;;;;;3.33;1.00;;;;;8.46;71.79;99694.19;4975675;28;45357;-55
2023/01/09 03:16:16;;;;;;;;;2.00;1.00;;;;;8.47;72.07;99689.75;4976208;28;45509;-55
2023/01/09 03:18:43;;;;;;;;;1.00;0.00;;;;;8.47;71.91;99701.19;4977938;28;45358;-51
2023/01/09 03:21:10;;;;;;;;;2.00;1.00;;;;;8.47;71.58;99703.00;4976494;28;45375;-51
2023/01/09 03:23:48;;;;;;;;;3.00;2.00;;;;;8.46;71.92;99703.97;4976126;28;46421;-55
2023/01/09 03:26:14;;;;;;;;;1.00;0.00;;;;;8.42;71.61;99699.97;4976230;28;45395;-57
2023/01/09 03:28:39;;;;;;;;;4.33;1.00;;;;;8.49;71.03;99708.97;4976221;28;45227;-55
2023/01/09 03:31:04;;;;;;;;;1.67;1.67;;;;;8.48;71.30;99688.75;4976830;28;45347;-45
2023/01/09 03:33:30;;;;;;;;;2.00;1.00;;;;;8.47;71.61;99706.47;4976230;28;45274;-48
2023/01/09 03:35:55;;;;;;;;;0.00;0.00;;;;;8.47;71.89;99700.34;4976093;28;45498;-43
2023/01/09 03:38:20;;;;;;;;;0.67;0.67;;;;;8.47;71.42;99703.00;4976267;28;45239;-44
2023/01/09 03:40:46;;;;;;;;;2.67;2.67;;;;;8.47;72.35;99711.78;4976396;28;45327;-43
2023/01/09 03:43:11;;;;;;;;;2.67;1.00;;;;;8.42;71.75;99705.28;4977784;28;45327;-43
2023/01/09 03:45:36;;;;;;;;;1.33;1.33;;;;;8.52;71.67;99711.31;4976053;28;45414;-44
2023/01/09 03:48:02;;;;;;;;;1.33;0.00;;;;;8.56;72.04;99711.81;4976406;28;45339;-42
2023/01/09 03:50:27;;;;;;;;;4.67;1.00;;;;;8.56;70.84;99717.97;4975745;28;45453;-42
2023/01/09 03:52:53;;;;;;;;;3.67;2.00;;;;;8.57;71.37;99714.31;4975819;28;45339;-45
2023/01/09 03:55:18;;;;;;;;;0.67;0.67;;;;;8.58;71.94;99713.31;4975865;28;45385;-43
2023/01/09 03:57:43;;;;;;;;;5.33;1.00;;;;;8.57;71.41;99716.97;4976048;28;45316;-44
2023/01/09 04:00:10;;;;;;;;;1.00;1.00;;;;;8.56;71.67;99715.31;4976269;28;45263;-44
2023/01/09 04:02:35;;;;;;;;;0.67;0.67;;;;;8.55;71.02;99708.31;4975612;28;46290;-46
2023/01/09 04:05:00;;;;;;;;;1.67;1.00;;;;;8.45;71.74;99697.03;4975917;28;45320;-53
2023/01/09 04:07:26;;;;;;;;;5.00;2.00;;;;;8.55;71.94;99718.09;4975797;28;45298;-43
2023/01/09 04:09:51;;;;;;;;;3.00;1.00;;;;;8.53;72.04;99720.09;4976223;28;45374;-52
2023/01/09 04:12:16;;;;;;;;;1.33;1.00;;;;;8.52;71.69;99731.69;4975867;28;46004;-46
2023/01/09 04:14:42;;;;;;;;;1.00;1.00;;;;;8.50;71.56;99734.47;4975689;28;45260;-43
2023/01/09 04:17:07;;;;;;;;;3.33;1.00;;;;;8.49;71.37;99740.78;4975854;28;45231;-45
2023/01/09 04:19:32;;;;;;;;;3.67;1.00;;;;;8.51;71.81;99746.72;4975962;28;45483;-51
2023/01/09 04:21:57;;;;;;;;;4.00;0.67;;;;;8.52;72.40;99751.06;4975474;28;47110;-43
2023/01/09 04:24:23;;;;;;;;;1.00;1.00;;;;;8.55;71.44;99758.69;4975487;28;45366;-45
2023/01/09 04:26:48;;;;;;;;;5.00;1.00;;;;;8.63;72.05;99764.03;4975695;28;45201;-49
2023/01/09 04:29:13;;;;;;;;;1.33;1.33;;;;;8.66;71.34;99766.38;4976072;28;45250;-46
2023/01/09 04:31:39;;;;;;;;;0.00;0.00;;;;;8.70;71.04;99770.38;4975623;28;45271;-49
2023/01/09 04:34:04;;;;;;;;;2.00;1.00;;;;;8.73;71.31;99763.94;4975797;28;45173;-44
2023/01/09 04:36:29;;;;;;;;;1.00;1.00;;;;;8.77;71.74;99762.63;4975539;28;45326;-45
2023/01/09 04:38:54;;;;;;;;;1.33;0.00;;;;;8.82;70.77;99767.44;4975870;28;45994;-50
2023/01/09 04:44:04;;;;;;;;;1.00;0.00;;;;;8.70;70.95;99727.94;4975492;28;45302;-44
2023/01/09 04:46:29;;;;;;;;;3.00;0.00;;;;;8.81;71.01;99750.72;4976707;28;45292;-46
2023/01/09 04:48:55;;;;;;;;;0.67;0.00;;;;;8.82;71.10;99754.19;4974214;28;45570;-43
2023/01/09 04:51:20;;;;;;;;;0.00;0.00;;;;;8.77;71.00;99749.38;4975202;28;50020;-44
2023/01/09 04:53:45;;;;;;;;;2.67;1.00;;;;;8.78;70.74;99748.38;4975261;28;45450;-44
2023/01/09 04:56:11;;;;;;;;;1.00;1.00;;;;;8.74;71.72;99761.09;4974074;28;45259;-43
2023/01/09 04:58:36;;;;;;;;;2.00;1.00;;;;;8.71;70.92;99761.41;4975443;28;45248;-45
2023/01/09 05:01:01;;;;;;;;;4.00;0.00;;;;;8.71;71.56;99744.69;4975332;28;46396;-44
2023/01/09 05:03:27;;;;;;;;;3.33;1.00;;;;;8.68;71.14;99751.16;4975042;28;45429;-46
2023/01/09 05:05:52;;;;;;;;;5.00;1.00;;;;;8.69;71.21;99765.25;4975438;28;45271;-45
2023/01/09 05:08:17;;;;;;;;;0.67;0.00;;;;;8.69;71.79;99765.25;4975212;28;45546;-44
2023/01/09 05:10:42;;;;;;;;;2.00;1.00;;;;;8.72;71.29;99757.81;4975015;28;46489;-45
2023/01/09 05:13:08;;;;;;;;;2.33;1.00;;;;;8.73;71.57;99769.22;4975145;28;47798;-46
2023/01/09 05:15:33;;;;;;;;;4.00;1.00;;;;;8.71;70.90;99782.63;4975175;28;45386;-43
2023/01/09 05:17:58;;;;;;;;;0.00;0.00;;;;;8.71;71.47;99776.50;4975329;28;45404;-44
2023/01/09 05:20:24;;;;;;;;;2.00;1.00;;;;;8.69;71.56;99765.25;4974721;28;50172;-44
2023/01/09 05:22:49;;;;;;;;;0.67;0.67;;;;;8.74;71.10;99765.59;4974664;28;45480;-46
2023/01/09 05:25:14;;;;;;;;;0.00;0.00;;;;;8.77;71.37;99783.00;4975158;28;45291;-47
2023/01/09 05:27:42;;;;;;;;;0.67;0.00;;;;;8.70;70.95;99769.53;4975106;28;45484;-44
2023/01/09 05:30:08;;;;;;;;;2.00;0.67;;;;;8.77;71.29;99780.34;4974648;28;47098;-46
2023/01/09 05:32:34;;;;;;;;;0.67;0.00;;;;;8.82;70.79;99796.63;4974597;28;45474;-45
2023/01/09 05:34:59;;;;;;;;;1.00;1.00;;;;;8.81;70.91;99813.53;4974786;28;45302;-44
2023/01/09 05:37:24;;;;;;;;;1.00;0.00;;;;;8.84;71.00;99818.50;4975242;28;45325;-47
2023/01/09 05:39:50;;;;;;;;;1.00;0.00;;;;;8.85;71.25;99823.66;4973178;28;45948;-45
2023/01/09 05:42:15;;;;;;;;;3.67;1.67;;;;;8.87;70.68;99819.00;4974518;28;47457;-43
2023/01/09 05:44:40;;;;;;;;;0.67;0.67;;;;;8.88;70.56;99819.84;4974604;28;45299;-46
2023/01/09 05:47:05;;;;;;;;;2.67;1.00;;;;;8.90;70.63;99817.88;4974804;28;45343;-45
2023/01/09 05:49:31;;;;;;;;;0.67;0.00;;;;;8.90;70.92;99834.63;4974307;28;45957;-51
2023/01/09 05:51:56;;;;;;;;;0.00;0.00;;;;;8.91;70.43;99824.84;4974496;28;45215;-50
2023/01/09 05:54:21;;;;;;;;;3.00;1.00;;;;;8.90;70.75;99829.31;4974607;28;45323;-45
2023/01/09 05:56:47;;;;;;;;;2.00;0.33;;;;;8.93;69.79;99828.16;4974675;28;45407;-49
2023/01/09 05:59:12;;;;;;;;;0.67;0.00;;;;;8.91;70.12;99827.50;4974445;28;45905;-58
2023/01/09 06:01:37;;;;;;;;;0.00;0.00;;;;;8.91;69.34;99825.66;4974625;28;45264;-52
2023/01/09 06:04:03;;;;;;;;;1.00;0.00;;;;;8.94;69.67;99835.97;4974252;28;46396;-46
2023/01/09 06:06:28;;;;;;;;;0.00;0.00;;;;;8.92;69.70;99839.75;4974679;28;45248;-50
2023/01/09 06:08:53;;;;;;;;;5.00;0.00;;;;;8.92;69.64;99834.44;4977056;28;45385;-45
2023/01/09 06:11:19;;;;;;;;;3.33;0.00;;;;;8.91;69.75;99835.44;4977112;28;45328;-42
2023/01/09 06:13:44;;;;;;;;;1.00;1.00;;;;;8.90;69.99;99836.44;4977183;28;45248;-57
2023/01/09 06:16:10;;;;;;;;;0.67;0.00;;;;;8.87;69.38;99839.41;4977322;28;45361;-45
2023/01/09 06:18:35;;;;;;;;;0.00;0.00;;;;;8.86;69.75;99824.47;4977103;28;45330;-46
2023/01/09 06:21:00;;;;;;;;;1.00;0.00;;;;;8.84;69.60;99823.78;4977107;28;45436;-48
2023/01/09 06:23:25;;;;;;;;;0.00;0.00;;;;;8.86;68.72;99849.19;4976877;28;45253;-51
2023/01/09 06:25:51;;;;;;;;;1.00;0.00;;;;;8.88;69.33;99841.06;4977119;28;45351;-44
2023/01/09 06:28:16;;;;;;;;;0.00;0.00;;;;;8.91;69.45;99846.88;4976743;28;46284;-44
2023/01/09 06:30:41;;;;;;;;;2.33;0.33;;;;;8.95;69.29;99858.00;4976992;28;45304;-45
2023/01/09 06:33:07;;;;;;;;;1.00;0.00;;;;;8.98;68.15;99863.00;4976929;28;49042;-44
2023/01/09 06:35:32;;;;;;;;;0.00;0.00;;;;;8.99;68.34;99865.50;4977271;28;45350;-43
2023/01/09 06:38:00;;;;;;;;;3.33;1.00;;;;;9.03;68.23;99863.38;4979123;28;46210;-43
2023/01/09 06:40:25;;;;;;;;;3.00;0.00;;;;;9.06;68.65;99871.00;4976724;28;45297;-47
2023/01/09 06:42:50;;;;;;;;;0.67;0.67;;;;;9.06;67.32;99871.00;4976962;28;45654;-44
2023/01/09 06:45:16;;;;;;;;;1.00;0.00;;;;;9.06;67.90;99881.63;4977204;28;45492;-46
2023/01/09 06:47:42;;;;;;;;;1.00;1.00;;;;;9.07;67.11;99887.75;4976740;28;45379;-43
2023/01/09 06:50:08;;;;;;;;;0.00;0.00;;;;;9.04;67.88;99882.75;4976545;28;45399;-46
2023/01/09 06:52:34;;;;;;;;;0.00;0.00;;;;;9.03;67.08;99867.84;4976537;28;45445;-44
2023/01/09 06:55:00;;;;;;;;;3.33;1.67;;;;;8.92;67.10;99883.03;4976878;28;45326;-48
2023/01/09 06:57:26;;;;;;;;;3.00;1.33;;;;;8.99;67.33;99891.19;4976567;28;45342;-45
2023/01/09 06:59:51;;;;;;;;;0.00;0.00;;;;;8.99;66.45;99888.53;4976631;28;45506;-52
2023/01/09 07:02:18;;;;;;;;;0.00;0.00;;;;;9.02;67.38;99900.63;4976769;28;45878;-44
2023/01/09 07:04:44;;;;;;;;;0.00;0.00;;;;;9.02;66.55;99900.63;4977016;28;45273;-45
2023/01/09 07:07:09;;;;;;;;;1.00;1.00;;;;;8.99;66.53;99899.97;4976318;28;45388;-45
2023/01/09 07:09:34;;;;;;;;;4.33;0.67;;;;;9.00;66.83;99916.72;4976435;28;45254;-50
2023/01/09 07:12:00;;;;;;;;;0.00;0.00;;;;;8.99;66.88;99915.91;4976702;28;45262;-58
2023/01/09 07:14:25;;;;;;;;;0.00;0.00;;;;;8.99;66.62;99917.72;4976816;28;45301;-50
2023/01/09 07:16:51;;;;;;;;;1.00;1.00;;;;;9.01;66.51;99915.72;4976313;28;45410;-45
2023/01/09 07:19:16;;;;;;;;;0.00;0.00;;;;;8.95;66.59;99919.03;4975678;28;45314;-42
2023/01/09 07:21:41;;;;;;;;;1.33;0.00;;;;;8.97;65.99;99920.53;4976984;28;45383;-45
2023/01/09 07:24:06;;;;;;;;;1.00;1.00;;;;;8.98;66.46;99924.03;4975181;28;45339;-46
2023/01/09 07:26:32;;;;;;;;;0.00;0.00;;;;;9.01;65.84;99929.00;4976002;28;45333;-44
2023/01/09 07:28:57;;;;;;;;;5.00;0.67;;;;;9.01;66.15;99915.72;4976456;28;45509;-56
2023/01/09 07:31:22;;;;;;;;;2.00;1.00;;;;;9.01;66.12;99921.03;4976592;28;45330;-45
2023/01/09 07:33:48;;;;;;;;;0.00;0.00;;;;;9.04;65.25;99936.66;4975860;28;45361;-45
2023/01/09 07:36:13;;;;;;;;;1.00;0.00;;;;;9.05;65.54;99921.56;4976052;28;46057;-46
2023/01/09 07:38:39;;;;;;;;;4.00;0.00;;;;;9.02;65.71;99920.06;4975948;28;45438;-48
2023/01/09 07:41:04;;;;;;;;;0.00;0.00;;;;;8.92;65.07;99909.53;4976100;28;45576;-44
2023/01/09 07:43:30;;;;;;;;;0.00;0.00;;;;;9.02;64.97;99933.34;4976490;28;45386;-50
2023/01/09 07:45:55;;;;;;;;;0.00;0.00;;;;;9.03;65.33;99919.06;4975924;28;46036;-52
2023/01/09 07:48:20;;;;;;;;;1.00;0.00;;;;;8.99;65.67;99931.81;4975752;28;45421;-43
2023/01/09 07:50:46;;;;;;;;;0.00;0.00;;;;;9.00;65.55;99946.72;4975921;28;46329;-45
2023/01/09 07:53:11;;;;;;;;;0.00;0.00;;;;;9.00;65.35;99944.09;4976058;28;45440;-45
2023/01/09 07:55:36;;;;;;;;;1.00;0.00;;;;;9.02;65.58;99948.38;4975817;28;46954;-44
2023/01/09 07:58:02;;;;;;;;;1.33;0.00;;;;;8.97;65.37;99947.06;4975806;28;45299;-46
2023/01/09 08:00:27;;;;;;;;;0.00;0.00;;;;;8.97;64.65;99952.38;4975871;28;45400;-47
2023/01/09 08:02:53;;;;;;;;;0.67;0.67;;;;;8.94;65.00;99951.84;4976128;28;45165;-50
2023/01/09 08:05:19;;;;;;;;;0.67;0.00;;;;;9.01;65.09;99963.47;4975796;28;45387;-54
2023/01/09 08:07:44;;;;;;;;;0.33;0.00;;;;;9.02;65.00;99983.75;4975718;28;45254;-47
2023/01/09 08:10:10;;;;;;;;;1.00;0.00;;;;;9.05;64.91;99983.41;4975640;28;45858;-46
2023/01/09 08:12:36;;;;;;;;;0.67;0.00;;;;;9.06;64.47;99987.75;4976059;28;45323;-58
2023/01/09 08:15:01;;;;;;;;;0.00;0.00;;;;;9.06;64.31;99977.13;4974260;28;46820;-52
2023/01/09 08:17:27;;;;;;;;;0.00;0.00;;;;;9.10;65.06;99981.16;4975700;28;45446;-45
2023/01/09 08:19:52;;;;;;;;;2.00;0.00;;;;;9.12;64.40;99984.47;4975866;28;45608;-50
2023/01/09 08:22:18;;;;;;;;;1.67;0.00;;;;;9.13;64.76;99994.06;4975598;28;45386;-46
2023/01/09 08:24:43;;;;;;;;;0.67;0.00;;;;;9.11;64.02;99988.09;4975327;28;46282;-53
2023/01/09 08:27:08;;;;;;;;;0.00;0.00;;;;;9.23;64.18;100007.25;4974900;28;45386;-42
2023/01/09 08:29:34;;;;;;;;;0.00;0.00;;;;;9.21;64.73;99999.44;4971832;28;45396;-47
2023/01/09 08:31:59;;;;;;;;;0.00;0.00;;;;;9.29;64.47;100016.41;4975197;28;45285;-43
2023/01/09 08:34:25;;;;;;;;;0.00;0.00;;;;;9.30;63.96;100010.09;4974244;28;46053;-43
2023/01/09 08:36:52;;;;;;;;;4.33;0.00;;;;;9.33;64.36;100015.13;4975375;28;45405;-45
2023/01/09 08:39:17;;;;;;;;;1.33;0.00;;;;;9.32;63.33;100018.75;5064746;27;45453;-42
2023/01/09 08:47:14;;;;;;;;;0.00;0.00;;;;;9.30;64.14;100016.25;4974096;28;45297;-43
2023/01/09 08:49:40;;;;;;;;;0.00;0.00;;;;;9.29;63.53;100021.72;4990348;28;45589;-45
2023/01/09 08:52:06;;;;;;;;;2.00;0.00;;;;;9.25;64.17;100032.63;5022613;27;45472;-42
2023/01/09 08:54:32;;;;;;;;;0.00;0.00;;;;;9.27;63.00;100029.00;4973785;28;45398;-43
2023/01/09 08:56:58;;;;;;;;;0.00;0.00;;;;;9.27;63.17;100034.28;4974012;28;45473;-44
2023/01/09 08:59:23;;;;;;;;;0.00;0.00;;;;;9.27;64.33;100029.84;4973637;28;45454;-50
2023/01/09 09:01:48;;;;;;;;;0.00;0.00;;;;;9.25;64.32;100045.09;4990600;28;45558;-42
2023/01/09 09:04:13;;;;;;;;;0.00;0.00;;;;;9.24;63.49;100054.88;4973738;28;46080;-44
2023/01/09 09:06:39;;;;;;;;;0.00;0.00;;;;;9.25;64.27;100059.19;5031131;28;45576;-46
2023/01/09 09:09:05;;;;;;;;;0.33;0.33;;;;;9.31;64.06;100068.34;5073548;27;45445;-44
2023/01/09 09:11:34;;;;;;;;;0.00;0.00;;;;;9.46;63.52;100065.97;5061652;27;45482;-43
2023/01/09 09:15:11;;;;;;;;;0.00;0.00;;;;;9.55;63.28;100082.78;5046648;28;45447;-46
2023/01/09 09:16:46;;;;;;;;;1.00;0.00;;;;;9.58;63.17;100082.47;5073507;27;45254;-43
2023/01/09 09:19:11;;;;;;;;;1.00;0.00;;;;;9.59;63.15;100094.75;5025679;27;45520;-47
2023/01/09 09:21:37;;;;;;;;;0.00;0.00;;;;;9.62;62.72;100087.31;5024545;28;45554;-48
2023/01/09 09:24:02;;;;;;;;;0.00;0.00;;;;;9.69;62.67;100106.09;4972458;28;46775;-48
2023/01/09 09:26:27;;;;;;;;;0.00;0.00;;;;;9.65;62.32;100102.94;5012958;28;45654;-48
2023/01/09 09:28:53;;;;;;;;;0.00;0.00;;;;;9.62;62.65;100111.22;5017292;28;45430;-44
2023/01/09 09:31:18;;;;;;;;;0.67;0.00;;;;;9.60;62.50;100121.13;4975980;28;45470;-45
2023/01/09 09:33:43;;;;;;;;;0.00;0.00;;;;;9.57;62.52;100120.63;4972836;28;55578;-46
2023/01/09 09:36:09;;;;;;;;;3.00;0.00;;;;;9.53;62.84;100128.06;4973385;28;49306;-57
2023/01/09 09:38:34;;;;;;;;;0.00;0.00;;;;;9.53;62.51;100135.22;4973377;28;46262;-56
2023/01/09 09:44:41;;;;;;;;;0.00;0.00;;;;;9.45;62.51;100122.72;5065177;27;45509;-56
2023/01/09 09:47:29;;;;;;;;;2.00;0.00;;;;;9.51;63.04;100140.66;5036805;28;45465;-54
2023/01/09 09:50:27;;;;;;;;;2.00;1.00;;;;;9.61;62.58;100144.06;5072751;27;45464;-57
2023/01/09 09:53:06;;;;;;;;;0.00;0.00;;;;;9.69;62.41;100154.75;5010605;27;45456;-50
2023/01/09 09:55:34;;;;;;;;;1.00;0.00;;;;;9.93;62.29;100159.38;4973224;28;45399;-58
2023/01/09 09:58:06;;;;;;;;;3.00;0.00;;;;;11.56;60.61;100161.69;4972935;28;45657;-53
2023/01/09 10:00:32;;;;;;;;;0.00;0.00;;;;;13.27;55.88;100157.56;4971317;28;45537;-58
2023/01/09 10:03:02;;;;;;;;;1.00;1.00;;;;;14.79;52.14;100160.84;4973206;28;45445;-57
2023/01/09 10:05:32;;;;;;;;;0.00;0.00;;;;;16.25;48.89;100163.00;4972934;28;45472;-55
2023/01/09 10:08:10;;;;;;;;;0.00;0.00;;;;;16.86;45.76;100151.53;4971921;28;45416;-56
2023/01/09 10:10:50;;;;;;;;;0.00;0.00;;;;;15.92;47.88;100174.34;4970700;28;45487;-59
2023/01/09 10:16:14;;;;;;;;;1.00;0.33;;;;;15.40;48.71;100167.50;4970605;28;45452;-59
2023/01/09 10:19:32;;;;;;;;;1.33;1.00;;;;;14.11;50.22;100179.69;4972288;28;45496;-57
2023/01/09 10:22:30;;;;;;;;;2.00;0.00;;;;;13.78;52.52;100184.56;5009576;28;45498;-59
2023/01/09 10:25:14;;;;;;;;;0.00;0.00;;;;;14.10;53.06;100194.09;5011436;28;45593;-52
2023/01/09 10:27:39;;;;;;;;;0.33;0.00;;;;;13.77;51.37;100187.41;5010804;28;45641;-59
2023/01/09 10:30:31;;;;;;;;;1.00;0.00;;;;;13.28;53.14;100212.69;5011282;28;46666;-45
2023/01/09 10:33:20;;;;;;;;;1.00;0.00;;;;;12.95;53.13;100204.84;5011311;28;45572;-57
2023/01/09 10:36:09;;;;;;;;;1.67;0.00;;;;;12.60;54.37;100213.31;5011633;28;45424;-56
2023/01/09 10:38:40;;;;;;;;;0.00;0.00;;;;;12.27;54.48;100220.63;5010375;28;45620;-58
2023/01/09 10:41:20;;;;;;;;;0.00;0.00;;;;;12.12;55.41;100225.78;5010493;28;45465;-54
2023/01/09 10:44:04;;;;;;;;;1.33;0.00;;;;;11.84;55.86;100233.31;5010867;28;45489;-51
2023/01/09 10:46:54;;;;;;;;;0.00;0.00;;;;;11.53;56.18;100236.63;5011339;28;45439;-58
2023/01/09 10:49:21;;;;;;;;;0.00;0.00;;;;;11.35;57.12;100239.44;5011011;28;46255;-58
2023/01/09 10:51:50;;;;;;;;;1.00;1.00;;;;;11.22;56.79;100234.56;5002930;28;45412;-58
2023/01/09 10:54:22;;;;;;;;;2.00;1.33;;;;;11.20;56.83;100243.72;4975283;28;45437;-54
2023/01/09 10:56:58;;;;;;;;;0.00;0.00;;;;;11.13;57.51;100243.56;4976336;28;45493;-58
2023/01/09 10:59:24;;;;;;;;;2.00;0.00;;;;;11.08;57.57;100248.53;5042631;28;47408;-57
2023/01/09 11:01:50;;;;;;;;;0.00;0.00;;;;;11.09;57.85;100236.06;5073016;27;45463;-55
2023/01/09 11:04:34;;;;;;;;;2.33;1.00;;;;;11.33;57.63;100252.06;5021671;27;45470;-58
2023/01/09 11:07:17;;;;;;;;;1.00;0.00;;;;;12.10;55.64;100243.81;4975703;28;45522;-57
2023/01/09 11:10:07;;;;;;;;;0.00;0.00;;;;;11.94;56.16;100245.47;4975047;28;45462;-57
2023/01/09 11:12:34;;;;;;;;;1.00;0.00;;;;;11.62;55.32;100243.59;4974973;28;45421;-53
2023/01/09 11:15:14;;;;;;;;;4.33;1.00;;;;;11.39;56.92;100248.75;5040050;27;45525;-57
2023/01/09 11:17:41;;;;;;;;;2.00;0.00;;;;;11.39;56.49;100243.44;4992375;28;45441;-48
2023/01/09 11:20:18;;;;;;;;;1.67;0.67;;;;;11.41;56.65;100240.59;4975076;28;45465;-44
2023/01/09 11:22:53;;;;;;;;;1.00;0.00;;;;;11.72;56.04;100224.81;4972922;28;45537;-58
2023/01/09 11:25:20;;;;;;;;;2.00;2.00;;;;;11.85;55.65;100243.00;4974883;28;45442;-54
2023/01/09 11:28:05;;;;;;;;;1.00;0.00;;;;;12.60;55.22;100235.53;5063871;27;45437;-51
2023/01/09 11:30:35;;;;;;;;;2.00;0.33;;;;;13.31;53.69;100222.16;5026322;27;45429;-59
2023/01/09 11:33:14;;;;;;;;;0.00;0.00;;;;;14.30;52.16;100231.03;5056724;28;45514;-55
2023/01/09 11:36:06;;;;;;;;;0.00;0.00;;;;;13.56;51.77;100239.69;5075228;27;45573;-60
2023/01/09 11:38:46;;;;;;;;;2.67;1.00;;;;;12.78;53.43;100227.28;5075100;27;45477;-57
2023/01/09 11:41:18;;;;;;;;;8.00;4.33;;;;;12.95;52.97;100239.53;5074553;27;46394;-56
2023/01/09 11:43:47;;;;;;;;;1.67;1.00;;;;;13.98;51.69;100251.72;5074843;27;45472;-56
2023/01/09 11:46:30;;;;;;;;;0.67;0.67;;;;;13.63;51.05;100237.97;5030436;27;45836;-50
2023/01/09 11:48:57;;;;;;;;;0.00;0.00;;;;;14.39;50.92;100238.78;5030264;27;45458;-56
2023/01/09 11:51:32;;;;;;;;;0.00;0.00;;;;;14.80;50.29;100235.66;5040520;28;46104;-55
2023/01/09 11:54:00;;;;;;;;;0.00;0.00;;;;;14.86;49.12;100252.81;5046314;28;45449;-55
2023/01/09 11:56:25;;;;;;;;;0.00;0.00;;;;;14.91;48.65;100250.41;5007720;28;45449;-55
2023/01/09 11:58:51;;;;;;;;;2.33;0.00;;;;;14.84;49.05;100253.03;5074421;28;45344;-44
2023/01/09 12:01:33;;;;;;;;;2.67;0.00;;;;;14.57;49.28;100251.81;5072784;27;45642;-59
2023/01/09 12:04:07;;;;;;;;;1.00;1.00;;;;;14.63;49.46;100261.81;5005360;27;45444;-55
2023/01/09 12:06:56;;;;;;;;;0.00;0.00;;;;;14.66;50.92;100264.13;5049450;28;45594;-58